createdAt,value
2022-07-26T00:00:46.577Z,99.90
2022-07-26T00:03:34.326Z,99.90
2022-07-26T00:06:21.469Z,99.90
2022-07-26T00:09:09.267Z,99.90
2022-07-26T00:11:56.612Z,99.90
2022-07-26T00:14:44.322Z,99.90
2022-07-26T00:17:31.877Z,99.90
2022-07-26T00:20:19.098Z,99.90
2022-07-26T00:23:06.856Z,99.90
2022-07-26T00:25:54.114Z,99.90
2022-07-26T00:28:41.850Z,99.90
2022-07-26T00:31:29.498Z,99.90
2022-07-26T00:34:16.798Z,99.90
2022-07-26T00:37:05.036Z,99.90
2022-07-26T00:39:52.826Z,99.90
2022-07-26T00:42:40.839Z,99.90
2022-07-26T00:45:28.013Z,99.90
2022-07-26T00:48:15.658Z,99.90
2022-07-26T00:51:03.003Z,99.90
2022-07-26T00:53:50.710Z,99.90
2022-07-26T00:56:38.514Z,99.90
2022-07-26T00:59:26.457Z,99.90
2022-07-26T01:02:14.706Z,99.90
2022-07-26T01:05:03.032Z,99.90
2022-07-26T01:07:50.795Z,99.90
2022-07-26T01:10:38.315Z,99.90
2022-07-26T01:13:25.700Z,99.90
2022-07-26T01:16:13.164Z,99.90
2022-07-26T01:19:00.376Z,99.90
2022-07-26T01:21:47.965Z,99.90
2022-07-26T01:24:35.655Z,99.90
2022-07-26T01:27:23.349Z,99.90
2022-07-26T01:30:12.638Z,99.90
2022-07-26T01:33:00.090Z,99.90
2022-07-26T01:35:47.647Z,99.90
2022-07-26T01:38:35.000Z,99.90
2022-07-26T01:41:37.600Z,99.90
2022-07-26T01:44:11.400Z,99.90
2022-07-26T01:46:58.701Z,99.90
2022-07-26T01:49:45.984Z,99.90
2022-07-26T01:52:34.401Z,99.90
2022-07-26T01:55:21.862Z,99.90
2022-07-26T01:58:09.508Z,99.90
2022-07-26T02:00:56.760Z,99.90
2022-07-26T02:03:44.211Z,99.90
2022-07-26T02:06:31.730Z,99.90
2022-07-26T02:09:19.178Z,99.90
2022-07-26T02:12:08.190Z,99.90
2022-07-26T02:14:55.806Z,99.90
2022-07-26T02:17:43.582Z,99.90
2022-07-26T02:20:32.454Z,99.90
2022-07-26T02:23:20.155Z,99.90
2022-07-26T02:26:07.613Z,99.90
2022-07-26T02:28:55.150Z,99.90
2022-07-26T02:31:42.615Z,99.90
2022-07-26T02:34:33.875Z,99.90
2022-07-26T02:37:20.412Z,99.90
2022-07-26T02:40:08.906Z,99.90
2022-07-26T02:42:56.587Z,99.90
2022-07-26T02:45:43.837Z,99.90
2022-07-26T02:48:34.397Z,99.90
2022-07-26T02:51:21.878Z,99.90
2022-07-26T02:54:09.680Z,99.90
2022-07-26T02:56:57.069Z,99.90
2022-07-26T02:59:44.585Z,99.90
2022-07-26T03:02:31.730Z,99.90
2022-07-26T03:05:19.577Z,99.90
2022-07-26T03:08:07.427Z,99.90
2022-07-26T03:10:54.951Z,99.90
2022-07-26T03:13:42.202Z,99.90
2022-07-26T03:16:30.061Z,99.90
2022-07-26T03:19:17.649Z,99.90
2022-07-26T03:22:05.172Z,99.90
2022-07-26T03:24:52.427Z,99.90
2022-07-26T03:27:39.950Z,99.90
2022-07-26T03:30:27.555Z,99.90
2022-07-26T03:33:15.080Z,99.90
2022-07-26T03:36:02.316Z,99.90
2022-07-26T03:38:49.884Z,99.90
2022-07-26T03:41:37.169Z,99.90
2022-07-26T03:44:24.630Z,99.90
2022-07-26T03:47:11.939Z,99.90
2022-07-26T03:49:59.221Z,99.90
2022-07-26T03:52:46.346Z,99.90
2022-07-26T03:55:51.630Z,99.90
2022-07-26T03:58:38.900Z,99.90
2022-07-26T04:01:26.825Z,99.90
2022-07-26T04:04:17.823Z,99.90
2022-07-26T04:07:04.941Z,99.90
2022-07-26T04:09:52.677Z,99.90
2022-07-26T04:12:40.161Z,99.90
2022-07-26T04:15:27.487Z,99.90
2022-07-26T04:18:14.873Z,99.90
2022-07-26T04:21:02.453Z,99.90
2022-07-26T04:23:51.443Z,99.90
2022-07-26T04:26:39.390Z,99.90
2022-07-26T04:29:26.931Z,99.90
2022-07-26T04:32:14.303Z,99.90
2022-07-26T04:35:01.774Z,99.90
2022-07-26T04:37:49.516Z,99.90
2022-07-26T04:40:39.268Z,99.90
2022-07-26T04:43:26.236Z,99.90
2022-07-26T04:46:13.799Z,99.90
2022-07-26T04:49:01.474Z,99.90
2022-07-26T04:51:48.663Z,99.90
2022-07-26T04:54:36.455Z,99.90
2022-07-26T04:57:23.600Z,99.90
2022-07-26T05:00:21.878Z,99.90
2022-07-26T05:03:04.082Z,99.90
2022-07-26T05:05:51.311Z,99.90
2022-07-26T05:08:39.049Z,99.90
2022-07-26T05:11:27.297Z,99.90
2022-07-26T05:14:14.860Z,99.90
2022-07-26T05:17:08.691Z,99.90
2022-07-26T05:19:54.323Z,99.90
2022-07-26T05:22:40.071Z,99.90
2022-07-26T05:25:27.479Z,99.90
2022-07-26T05:28:15.191Z,99.90
2022-07-26T05:31:02.710Z,99.90
2022-07-26T05:33:50.170Z,99.90
2022-07-26T05:36:37.085Z,99.90
2022-07-26T05:39:24.414Z,99.90
2022-07-26T05:42:11.952Z,99.90
2022-07-26T05:44:59.370Z,99.90
2022-07-26T05:47:53.152Z,99.90
2022-07-26T05:50:40.320Z,99.90
2022-07-26T05:53:28.762Z,99.90
2022-07-26T05:56:16.179Z,99.90
2022-07-26T05:59:03.392Z,99.90
2022-07-26T06:01:50.582Z,99.90
2022-07-26T06:04:38.473Z,99.90
2022-07-26T06:07:26.010Z,99.90
2022-07-26T06:10:13.541Z,99.90
2022-07-26T06:13:00.757Z,99.90
2022-07-26T06:15:48.208Z,99.90
2022-07-26T06:18:35.486Z,99.90
2022-07-26T06:21:22.708Z,99.90
2022-07-26T06:24:10.777Z,99.90
2022-07-26T06:27:04.679Z,99.90
2022-07-26T06:29:49.141Z,99.90
2022-07-26T06:32:36.683Z,99.90
2022-07-26T06:35:24.305Z,99.90
2022-07-26T06:38:11.889Z,99.90
2022-07-26T06:40:59.475Z,99.90
2022-07-26T06:43:46.804Z,99.90
2022-07-26T06:46:34.152Z,99.90
2022-07-26T06:49:23.014Z,99.90
2022-07-26T06:52:10.241Z,99.90
2022-07-26T06:54:57.465Z,99.90
2022-07-26T06:57:49.963Z,99.90
2022-07-26T07:00:33.666Z,99.90
2022-07-26T07:03:21.206Z,99.90
2022-07-26T07:06:08.718Z,99.90
2022-07-26T07:08:56.453Z,99.90
2022-07-26T07:11:44.557Z,99.90
2022-07-26T07:14:32.334Z,99.90
2022-07-26T07:17:22.184Z,99.90
2022-07-26T07:20:10.338Z,99.90
2022-07-26T07:22:57.997Z,99.90
2022-07-26T07:25:45.137Z,99.90
2022-07-26T07:28:34.025Z,99.90
2022-07-26T07:31:25.909Z,99.90
2022-07-26T07:34:11.547Z,99.90
2022-07-26T07:36:59.024Z,99.90
2022-07-26T07:39:50.073Z,99.90
2022-07-26T07:42:37.192Z,99.90
2022-07-26T07:45:25.078Z,99.90
2022-07-26T07:48:12.699Z,99.90
2022-07-26T07:51:00.409Z,99.90
2022-07-26T07:53:56.304Z,99.90
2022-07-26T07:56:37.352Z,99.90
2022-07-26T07:59:24.841Z,99.90
2022-07-26T08:02:13.995Z,99.90
2022-07-26T08:05:14.035Z,99.90
2022-07-26T08:07:50.438Z,99.90
2022-07-26T08:10:43.597Z,99.90
2022-07-26T08:13:28.287Z,99.90
2022-07-26T08:16:15.741Z,99.90
2022-07-26T08:19:02.851Z,99.90
2022-07-26T08:21:50.577Z,99.90
2022-07-26T08:24:40.411Z,99.90
2022-07-26T08:27:27.916Z,99.90
2022-07-26T08:30:15.632Z,99.90
2022-07-26T08:33:02.823Z,99.90
2022-07-26T08:35:50.522Z,99.90
2022-07-26T08:38:37.970Z,99.90
2022-07-26T08:41:25.492Z,99.90
2022-07-26T08:44:13.105Z,99.80
2022-07-26T08:47:00.403Z,99.40
2022-07-26T08:49:47.516Z,99.70
2022-07-26T08:52:35.471Z,99.20
2022-07-26T08:55:22.892Z,98.50
2022-07-26T08:58:09.989Z,98.30
2022-07-26T09:01:12.413Z,98.50
2022-07-26T09:04:02.578Z,98.20
2022-07-26T09:06:59.070Z,97.40
2022-07-26T09:10:04.039Z,97.90
2022-07-26T09:12:57.263Z,96.60
2022-07-26T09:15:44.927Z,96.60
2022-07-26T09:18:32.385Z,96.20
2022-07-26T09:21:36.007Z,96.10
2022-07-26T09:24:43.881Z,96.10
2022-07-26T09:27:37.235Z,96.30
2022-07-26T09:30:24.473Z,96.00
2022-07-26T09:33:12.104Z,95.80
2022-07-26T09:36:05.255Z,96.20
2022-07-26T09:38:59.081Z,96.30
2022-07-26T09:41:49.358Z,96.20
2022-07-26T09:44:38.272Z,96.10
2022-07-26T09:47:38.520Z,94.40
2022-07-26T09:50:29.382Z,94.20
2022-07-26T09:53:16.811Z,93.50
2022-07-26T09:56:04.322Z,94.90
2022-07-26T09:58:53.370Z,95.60
2022-07-26T10:01:42.548Z,95.40
2022-07-26T10:04:30.151Z,95.90
2022-07-26T10:07:18.468Z,96.10
2022-07-26T10:10:11.657Z,95.20
2022-07-26T10:13:01.697Z,95.20
2022-07-26T10:15:51.604Z,94.40
2022-07-26T10:18:42.927Z,94.90
2022-07-26T10:21:31.209Z,95.10
2022-07-26T10:24:28.962Z,95.10
2022-07-26T10:27:38.154Z,93.80
2022-07-26T10:30:34.231Z,94.30
2022-07-26T10:33:19.015Z,93.60
2022-07-26T10:36:09.586Z,91.80
2022-07-26T10:39:08.719Z,91.60
2022-07-26T10:42:02.227Z,91.30
2022-07-26T10:44:50.317Z,92.70
2022-07-26T10:47:37.641Z,92.90
2022-07-26T10:50:35.500Z,92.00
2022-07-26T10:53:25.333Z,90.90
2022-07-26T10:56:12.450Z,89.90
2022-07-26T10:59:01.441Z,89.50
2022-07-26T11:01:48.700Z,89.20
2022-07-26T11:04:36.410Z,90.60
2022-07-26T11:07:23.806Z,84.70
2022-07-26T11:10:11.472Z,85.60
2022-07-26T11:13:26.091Z,82.40
2022-07-26T11:16:13.368Z,80.40
2022-07-26T11:19:02.201Z,81.50
2022-07-26T11:22:00.939Z,83.00
2022-07-26T11:24:48.617Z,83.40
2022-07-26T11:27:36.108Z,84.90
2022-07-26T11:30:23.888Z,85.90
2022-07-26T11:33:11.836Z,86.20
2022-07-26T11:35:59.124Z,84.80
2022-07-26T11:38:54.821Z,86.80
2022-07-26T11:41:44.131Z,87.90
2022-07-26T11:44:32.493Z,89.40
2022-07-26T11:47:25.307Z,88.60
2022-07-26T11:50:16.976Z,89.20
2022-07-26T11:53:00.941Z,87.30
2022-07-26T11:55:48.770Z,85.20
2022-07-26T11:58:36.425Z,88.10
2022-07-26T12:01:25.473Z,85.30
2022-07-26T12:04:21.205Z,85.70
2022-07-26T12:07:14.280Z,84.30
2022-07-26T12:10:02.157Z,81.60
2022-07-26T12:12:49.527Z,82.40
2022-07-26T12:15:53.887Z,84.60
2022-07-26T12:18:42.742Z,84.50
2022-07-26T12:21:54.421Z,82.10
2022-07-26T12:24:59.001Z,79.40
2022-07-26T12:27:49.274Z,81.90
2022-07-26T12:30:37.216Z,79.10
2022-07-26T12:33:25.679Z,77.20
2022-07-26T12:36:27.089Z,76.90
2022-07-26T12:39:24.579Z,77.90
2022-07-26T12:42:34.319Z,78.30
2022-07-26T12:45:16.875Z,79.20
2022-07-26T12:48:07.166Z,79.70
2022-07-26T12:50:55.238Z,75.30
2022-07-26T12:53:42.446Z,74.50
2022-07-26T12:56:29.939Z,75.00
2022-07-26T12:59:17.907Z,78.50
2022-07-26T13:02:06.019Z,76.30
2022-07-26T13:04:58.244Z,77.10
2022-07-26T13:07:43.448Z,77.40
2022-07-26T13:10:33.455Z,77.10
2022-07-26T13:13:19.831Z,77.20
2022-07-26T13:16:11.846Z,78.60
2022-07-26T13:18:56.680Z,75.00
2022-07-26T13:21:47.874Z,77.50
2022-07-26T13:24:34.327Z,74.20
2022-07-26T13:27:21.681Z,74.50
2022-07-26T13:30:09.570Z,74.60
2022-07-26T13:32:57.089Z,74.50
2022-07-26T13:35:44.716Z,76.30
2022-07-26T13:38:35.230Z,70.60
2022-07-26T13:41:23.023Z,71.40
2022-07-26T13:44:10.568Z,71.70
2022-07-26T13:46:59.057Z,74.00
2022-07-26T13:49:46.521Z,72.50
2022-07-26T13:52:34.565Z,71.00
2022-07-26T13:55:21.775Z,70.10
2022-07-26T13:58:10.419Z,68.90
2022-07-26T14:00:57.711Z,69.70
2022-07-26T14:03:44.989Z,71.60
2022-07-26T14:06:32.513Z,69.40
2022-07-26T14:09:21.244Z,70.50
2022-07-26T14:12:09.099Z,70.80
2022-07-26T14:14:56.381Z,70.30
2022-07-26T14:17:45.500Z,71.90
2022-07-26T14:20:32.854Z,71.20
2022-07-26T14:23:20.505Z,72.80
2022-07-26T14:26:07.778Z,73.80
2022-07-26T14:28:55.232Z,73.70
2022-07-26T14:31:42.678Z,74.80
2022-07-26T14:34:30.408Z,76.20
2022-07-26T14:37:42.953Z,76.30
2022-07-26T14:40:07.647Z,78.00
2022-07-26T14:42:55.334Z,76.10
2022-07-26T14:45:42.860Z,75.10
2022-07-26T14:48:53.024Z,73.40
2022-07-26T14:51:19.200Z,72.00
2022-07-26T14:54:07.299Z,73.10
2022-07-26T14:56:55.926Z,73.00
2022-07-26T14:59:43.126Z,74.80
2022-07-26T15:02:30.742Z,74.30
2022-07-26T15:05:19.217Z,76.30
2022-07-26T15:08:06.934Z,73.50
2022-07-26T15:10:54.529Z,72.60
2022-07-26T15:13:42.332Z,65.40
2022-07-26T15:16:29.700Z,66.10
2022-07-26T15:19:19.917Z,68.20
2022-07-26T15:22:06.479Z,64.90
2022-07-26T15:24:53.941Z,65.10
2022-07-26T15:27:41.624Z,66.60
2022-07-26T15:30:29.346Z,65.30
2022-07-26T15:33:18.074Z,63.40
2022-07-26T15:36:06.197Z,64.70
2022-07-26T15:38:53.299Z,65.00
2022-07-26T15:41:40.720Z,62.80
2022-07-26T15:44:28.093Z,63.30
2022-07-26T15:47:15.572Z,61.80
2022-07-26T15:50:04.676Z,62.50
2022-07-26T15:52:51.462Z,62.50
2022-07-26T15:55:38.506Z,62.90
2022-07-26T15:58:26.902Z,62.30
2022-07-26T16:01:15.156Z,61.50
2022-07-26T16:04:03.497Z,60.60
2022-07-26T16:06:51.138Z,59.60
2022-07-26T16:09:38.739Z,61.50
2022-07-26T16:12:26.269Z,61.20
2022-07-26T16:15:14.100Z,61.70
2022-07-26T16:18:06.130Z,61.00
2022-07-26T16:20:50.384Z,61.30
2022-07-26T16:23:37.871Z,62.00
2022-07-26T16:26:25.685Z,61.50
2022-07-26T16:29:14.140Z,60.90
2022-07-26T16:32:01.742Z,61.80
2022-07-26T16:34:49.554Z,61.50
2022-07-26T16:37:36.819Z,62.70
2022-07-26T16:40:24.138Z,62.00
2022-07-26T16:43:11.847Z,61.40
2022-07-26T16:45:59.314Z,62.00
2022-07-26T16:48:46.691Z,62.30
2022-07-26T16:51:33.769Z,63.40
2022-07-26T16:54:21.130Z,61.00
2022-07-26T16:57:08.738Z,61.50
2022-07-26T16:59:56.020Z,61.70
2022-07-26T17:02:43.663Z,62.10
2022-07-26T17:05:30.990Z,63.80
2022-07-26T17:08:18.505Z,63.10
2022-07-26T17:11:06.169Z,64.80
2022-07-26T17:13:53.738Z,65.50
2022-07-26T17:16:41.362Z,66.00
2022-07-26T17:19:28.689Z,67.20
2022-07-26T17:22:16.059Z,67.40
2022-07-26T17:25:04.033Z,68.70
2022-07-26T17:27:51.315Z,69.20
2022-07-26T17:30:38.906Z,69.70
2022-07-26T17:33:27.575Z,69.90
2022-07-26T17:36:29.234Z,69.80
2022-07-26T17:39:16.582Z,70.10
2022-07-26T17:42:04.093Z,71.40
2022-07-26T17:44:52.090Z,71.30
2022-07-26T17:47:39.761Z,72.20
2022-07-26T17:50:36.548Z,72.00
2022-07-26T17:53:17.324Z,72.50
2022-07-26T17:56:06.918Z,73.30
2022-07-26T17:58:53.971Z,74.40
2022-07-26T18:01:50.622Z,74.40
2022-07-26T18:04:33.899Z,74.70
2022-07-26T18:07:21.174Z,74.40
2022-07-26T18:10:09.989Z,75.30
2022-07-26T18:12:57.384Z,75.10
2022-07-26T18:15:44.861Z,75.00
2022-07-26T18:18:32.383Z,74.70
2022-07-26T18:21:20.205Z,75.10
2022-07-26T18:24:16.711Z,74.50
2022-07-26T18:26:56.717Z,75.10
2022-07-26T18:29:44.261Z,74.70
2022-07-26T18:32:32.019Z,74.30
2022-07-26T18:35:19.317Z,74.20
2022-07-26T18:38:06.800Z,74.90
2022-07-26T18:40:54.445Z,74.50
2022-07-26T18:43:43.232Z,74.60
2022-07-26T18:46:30.537Z,74.70
2022-07-26T18:49:20.290Z,74.00
2022-07-26T18:52:08.730Z,74.40
2022-07-26T18:54:58.533Z,75.10
2022-07-26T18:57:46.157Z,75.10
2022-07-26T19:00:33.265Z,75.00
2022-07-26T19:03:21.329Z,75.50
2022-07-26T19:06:09.040Z,75.50
2022-07-26T19:08:56.500Z,75.40
2022-07-26T19:11:45.471Z,76.80
2022-07-26T19:14:33.098Z,76.10
2022-07-26T19:17:20.563Z,75.80
2022-07-26T19:20:08.726Z,75.50
2022-07-26T19:22:55.815Z,77.10
2022-07-26T19:25:43.335Z,77.80
2022-07-26T19:28:30.925Z,75.60
2022-07-26T19:31:18.590Z,76.10
2022-07-26T19:34:05.564Z,77.90
2022-07-26T19:36:53.402Z,77.80
2022-07-26T19:39:40.384Z,77.30
2022-07-26T19:42:32.463Z,76.30
2022-07-26T19:45:19.680Z,76.40
2022-07-26T19:48:07.771Z,76.50
2022-07-26T19:50:55.237Z,78.60
2022-07-26T19:53:44.109Z,77.30
2022-07-26T19:56:31.525Z,77.60
2022-07-26T19:59:23.422Z,77.90
2022-07-26T20:02:08.639Z,78.60
2022-07-26T20:04:55.885Z,78.90
2022-07-26T20:07:43.435Z,79.20
2022-07-26T20:10:32.359Z,79.20
2022-07-26T20:13:19.751Z,79.60
2022-07-26T20:16:07.406Z,79.90
2022-07-26T20:18:54.621Z,80.00
2022-07-26T20:21:42.233Z,80.50
2022-07-26T20:24:29.524Z,81.40
2022-07-26T20:27:16.836Z,81.70
2022-07-26T20:30:04.017Z,82.60
2022-07-26T20:32:51.667Z,83.40
2022-07-26T20:35:39.048Z,85.60
2022-07-26T20:38:26.252Z,86.60
2022-07-26T20:41:13.701Z,86.90
2022-07-26T20:44:01.092Z,87.50
2022-07-26T20:46:48.281Z,88.40
2022-07-26T20:49:36.581Z,90.20
2022-07-26T20:52:23.902Z,90.90
2022-07-26T20:55:13.098Z,91.60
2022-07-26T20:58:00.611Z,92.10
2022-07-26T21:00:47.832Z,92.60
2022-07-26T21:03:34.863Z,93.00
2022-07-26T21:06:22.645Z,93.40
2022-07-26T21:09:12.225Z,93.80
2022-07-26T21:12:00.073Z,94.10
2022-07-26T21:14:47.524Z,94.40
2022-07-26T21:17:35.021Z,94.70
2022-07-26T21:20:22.687Z,95.30
2022-07-26T21:23:17.388Z,95.60
2022-07-26T21:26:00.736Z,96.00
2022-07-26T21:28:48.327Z,96.30
2022-07-26T21:31:35.539Z,96.70
2022-07-26T21:34:24.235Z,97.20
2022-07-26T21:37:11.811Z,97.60
2022-07-26T21:39:59.958Z,97.90
2022-07-26T21:42:48.645Z,98.10
2022-07-26T21:45:36.142Z,98.30
2022-07-26T21:48:23.458Z,98.40
2022-07-26T21:51:11.022Z,98.60
2022-07-26T21:53:58.577Z,98.60
2022-07-26T21:56:47.502Z,98.70
2022-07-26T21:59:35.835Z,98.90
2022-07-26T22:02:23.148Z,99.00
2022-07-26T22:05:28.413Z,99.00
2022-07-26T22:08:16.366Z,99.00
2022-07-26T22:11:04.774Z,98.90
2022-07-26T22:13:52.120Z,99.00
2022-07-26T22:16:39.560Z,99.10
2022-07-26T22:19:26.913Z,99.10
2022-07-26T22:22:14.571Z,99.10
2022-07-26T22:25:02.070Z,99.10
2022-07-26T22:27:49.278Z,99.30
2022-07-26T22:30:37.051Z,99.40
2022-07-26T22:33:24.882Z,99.40
2022-07-26T22:36:12.324Z,99.30
2022-07-26T22:38:59.940Z,99.30
2022-07-26T22:42:13.116Z,99.30
2022-07-26T22:44:36.758Z,99.50
2022-07-26T22:47:24.441Z,99.40
2022-07-26T22:50:12.334Z,99.60
2022-07-26T22:53:02.050Z,99.60
2022-07-26T22:55:49.279Z,99.80
2022-07-26T22:58:36.373Z,99.90
2022-07-26T23:01:24.012Z,99.90
2022-07-26T23:04:11.606Z,99.90
2022-07-26T23:06:59.171Z,99.90
2022-07-26T23:09:47.306Z,99.90
2022-07-26T23:12:34.644Z,99.90
2022-07-26T23:15:22.049Z,99.90
2022-07-26T23:18:09.291Z,99.90
2022-07-26T23:20:56.671Z,99.90
2022-07-26T23:23:44.086Z,99.90
2022-07-26T23:26:31.729Z,99.90
2022-07-26T23:29:19.792Z,99.90
2022-07-26T23:32:07.426Z,99.90
2022-07-26T23:34:55.952Z,99.90
2022-07-26T23:37:43.553Z,99.90
2022-07-26T23:40:30.865Z,99.90
2022-07-26T23:43:18.168Z,99.90
2022-07-26T23:46:05.430Z,99.90
2022-07-26T23:48:53.308Z,99.90
2022-07-26T23:51:40.540Z,99.90
2022-07-26T23:54:27.754Z,99.90
2022-07-26T23:57:15.421Z,99.90
